createdAt,value
2019-05-28T00:00:03.197Z,64.35
2019-05-28T00:01:12.184Z,64.39
2019-05-28T00:02:20.341Z,64.50
2019-05-28T00:03:29.289Z,64.39
2019-05-28T00:04:37.300Z,64.19
2019-05-28T00:05:46.117Z,64.28
2019-05-28T00:06:54.327Z,64.42
2019-05-28T00:08:03.584Z,64.13
2019-05-28T00:09:11.655Z,64.10
2019-05-28T00:10:20.555Z,64.32
2019-05-28T00:11:28.538Z,64.72
2019-05-28T00:12:37.463Z,64.50
2019-05-28T00:13:45.370Z,64.73
2019-05-28T00:14:54.293Z,64.61
2019-05-28T00:16:02.478Z,64.66
2019-05-28T00:17:11.302Z,64.78
2019-05-28T00:18:19.596Z,64.82
2019-05-28T00:19:28.311Z,64.86
2019-05-28T00:20:36.302Z,64.66
2019-05-28T00:21:45.013Z,64.90
2019-05-28T00:22:53.098Z,64.83
2019-05-28T00:24:01.408Z,65.16
2019-05-28T00:25:10.177Z,65.03
2019-05-28T00:26:18.907Z,65.22
2019-05-28T00:27:27.037Z,65.27
2019-05-28T00:28:35.795Z,65.36
2019-05-28T00:29:43.911Z,65.51
2019-05-28T00:30:53.022Z,65.43
2019-05-28T00:32:01.004Z,65.27
2019-05-28T00:33:09.820Z,65.40
2019-05-28T00:34:17.616Z,65.47
2019-05-28T00:35:26.353Z,65.30
2019-05-28T00:36:34.782Z,65.38
2019-05-28T00:37:43.700Z,65.51
2019-05-28T00:38:51.962Z,65.39
2019-05-28T00:40:02.671Z,65.55
2019-05-28T00:41:10.856Z,65.32
2019-05-28T00:42:19.785Z,65.49
2019-05-28T00:43:28.063Z,65.45
2019-05-28T00:44:36.728Z,65.55
2019-05-28T00:45:44.884Z,65.73
2019-05-28T00:46:53.811Z,65.70
2019-05-28T00:48:02.217Z,66.10
2019-05-28T00:49:11.107Z,66.26
2019-05-28T00:50:20.010Z,66.34
2019-05-28T00:51:29.106Z,66.40
2019-05-28T00:52:37.549Z,66.45
2019-05-28T00:53:46.410Z,66.51
2019-05-28T00:54:54.868Z,66.45
2019-05-28T00:56:05.405Z,66.41
2019-05-28T00:57:15.697Z,66.30
2019-05-28T00:58:25.490Z,66.29
2019-05-28T00:59:34.886Z,66.34
2019-05-28T01:00:55.760Z,66.17
2019-05-28T01:02:04.067Z,66.10
2019-05-28T01:03:12.783Z,66.24
2019-05-28T01:04:20.863Z,66.30
2019-05-28T01:05:29.729Z,66.34
2019-05-28T01:06:38.188Z,66.45
2019-05-28T01:07:46.700Z,66.57
2019-05-28T01:08:54.894Z,66.38
2019-05-28T01:10:03.298Z,66.76
2019-05-28T01:11:11.364Z,66.45
2019-05-28T01:12:20.010Z,66.75
2019-05-28T01:13:28.072Z,66.57
2019-05-28T01:14:36.881Z,66.23
2019-05-28T01:15:45.296Z,66.48
2019-05-28T01:16:54.151Z,66.48
2019-05-28T01:18:02.406Z,66.60
2019-05-28T01:19:11.136Z,66.96
2019-05-28T01:20:19.473Z,66.63
2019-05-28T01:21:28.679Z,66.62
2019-05-28T01:22:36.841Z,66.66
2019-05-28T01:23:45.756Z,66.80
2019-05-28T01:24:53.904Z,66.67
2019-05-28T01:26:02.878Z,66.88
2019-05-28T01:27:11.173Z,66.73
2019-05-28T01:28:20.063Z,66.61
2019-05-28T01:29:28.204Z,66.59
2019-05-28T01:30:53.392Z,66.96
2019-05-28T01:31:47.160Z,67.03
2019-05-28T01:32:56.005Z,67.03
2019-05-28T01:34:04.336Z,67.18
2019-05-28T01:35:13.379Z,66.96
2019-05-28T01:36:21.381Z,66.97
2019-05-28T01:37:30.668Z,67.04
2019-05-28T01:38:39.013Z,67.10
2019-05-28T01:39:48.024Z,67.05
2019-05-28T01:40:55.954Z,67.22
2019-05-28T01:42:05.240Z,67.13
2019-05-28T01:43:13.443Z,67.14
2019-05-28T01:44:22.466Z,67.16
2019-05-28T01:45:30.300Z,67.26
2019-05-28T01:46:39.432Z,67.33
2019-05-28T01:47:47.741Z,67.31
2019-05-28T01:48:56.693Z,67.22
2019-05-28T01:50:06.601Z,67.21
2019-05-28T01:51:15.473Z,67.22
2019-05-28T01:52:23.386Z,67.24
2019-05-28T01:53:32.136Z,67.16
2019-05-28T01:54:40.085Z,67.07
2019-05-28T01:55:48.976Z,66.94
2019-05-28T01:56:56.794Z,66.97
2019-05-28T01:58:05.632Z,67.18
2019-05-28T01:59:13.925Z,67.01
2019-05-28T02:00:23.194Z,66.87
2019-05-28T02:01:31.349Z,66.91
2019-05-28T02:02:40.044Z,66.79
2019-05-28T02:03:48.502Z,66.96
2019-05-28T02:04:57.293Z,67.11
2019-05-28T02:06:05.887Z,67.17
2019-05-28T02:07:14.705Z,67.36
2019-05-28T02:08:23.004Z,67.19
2019-05-28T02:09:31.787Z,67.45
2019-05-28T02:10:40.049Z,67.32
2019-05-28T02:11:49.183Z,67.31
2019-05-28T02:12:57.323Z,67.24
2019-05-28T02:14:06.991Z,67.38
2019-05-28T02:15:16.101Z,67.45
2019-05-28T02:16:25.011Z,67.56
2019-05-28T02:17:33.424Z,67.48
2019-05-28T02:18:42.448Z,67.43
2019-05-28T02:19:50.773Z,67.30
2019-05-28T02:20:59.638Z,67.34
2019-05-28T02:22:07.643Z,67.56
2019-05-28T02:23:16.567Z,67.61
2019-05-28T02:24:24.721Z,67.60
2019-05-28T02:25:33.719Z,67.51
2019-05-28T02:26:41.564Z,67.52
2019-05-28T02:27:50.481Z,67.49
2019-05-28T02:28:58.726Z,67.35
2019-05-28T02:30:12.881Z,67.50
2019-05-28T02:31:27.689Z,67.62
2019-05-28T02:32:31.325Z,67.48
2019-05-28T02:33:39.604Z,67.52
2019-05-28T02:34:48.656Z,67.42
2019-05-28T02:35:56.670Z,67.50
2019-05-28T02:37:05.595Z,67.46
2019-05-28T02:38:13.985Z,67.27
2019-05-28T02:39:22.651Z,67.22
2019-05-28T02:40:30.735Z,67.36
2019-05-28T02:41:39.887Z,67.29
2019-05-28T02:42:47.975Z,67.36
2019-05-28T02:43:56.345Z,67.48
2019-05-28T02:45:06.277Z,67.52
2019-05-28T02:46:14.711Z,67.34
2019-05-28T02:47:22.938Z,67.39
2019-05-28T02:48:31.986Z,67.22
2019-05-28T02:49:40.047Z,67.36
2019-05-28T02:50:58.366Z,67.26
2019-05-28T02:52:06.611Z,67.33
2019-05-28T02:53:15.738Z,67.32
2019-05-28T02:54:24.205Z,67.38
2019-05-28T02:55:34.026Z,67.52
2019-05-28T02:56:43.709Z,67.45
2019-05-28T02:57:53.357Z,67.27
2019-05-28T02:59:02.899Z,67.52
2019-05-28T03:00:17.901Z,67.54
2019-05-28T03:01:42.722Z,67.48
2019-05-28T03:02:41.505Z,67.35
2019-05-28T03:03:53.589Z,67.41
2019-05-28T03:05:04.925Z,67.50
2019-05-28T03:06:14.662Z,67.35
2019-05-28T03:07:23.912Z,67.44
2019-05-28T03:08:32.835Z,67.47
2019-05-28T03:09:44.581Z,67.58
2019-05-28T03:11:02.353Z,67.48
2019-05-28T03:12:03.284Z,67.37
2019-05-28T03:13:11.458Z,67.41
2019-05-28T03:14:20.473Z,67.34
2019-05-28T03:15:28.672Z,67.07
2019-05-28T03:16:42.015Z,67.31
2019-05-28T03:17:50.759Z,67.29
2019-05-28T03:19:02.249Z,67.55
2019-05-28T03:20:11.013Z,67.37
2019-05-28T03:21:21.881Z,67.55
2019-05-28T03:22:34.380Z,67.70
2019-05-28T03:23:45.032Z,67.63
2019-05-28T03:24:53.906Z,67.43
2019-05-28T03:26:02.666Z,67.36
2019-05-28T03:27:10.920Z,67.51
2019-05-28T03:28:19.847Z,67.57
2019-05-28T03:29:27.819Z,67.54
2019-05-28T03:30:36.789Z,67.41
2019-05-28T03:32:06.036Z,67.33
2019-05-28T03:32:55.681Z,67.34
2019-05-28T03:34:03.898Z,67.22
2019-05-28T03:35:12.926Z,67.17
2019-05-28T03:36:25.056Z,67.16
2019-05-28T03:37:36.049Z,67.28
2019-05-28T03:38:46.184Z,67.26
2019-05-28T03:39:58.455Z,67.21
2019-05-28T03:41:06.795Z,67.30
2019-05-28T03:42:15.949Z,67.49
2019-05-28T03:43:24.159Z,67.68
2019-05-28T03:44:32.750Z,67.75
2019-05-28T03:45:40.882Z,67.74
2019-05-28T03:46:49.875Z,67.78
2019-05-28T03:47:57.967Z,67.93
2019-05-28T03:49:06.820Z,67.92
2019-05-28T03:50:15.239Z,68.00
2019-05-28T03:51:24.362Z,67.85
2019-05-28T03:52:32.889Z,67.56
2019-05-28T03:53:41.785Z,67.70
2019-05-28T03:54:50.029Z,67.71
2019-05-28T03:55:58.795Z,67.64
2019-05-28T03:57:06.689Z,67.65
2019-05-28T03:58:15.962Z,67.42
2019-05-28T03:59:24.162Z,67.81
2019-05-28T04:00:33.017Z,67.80
2019-05-28T04:01:41.042Z,67.92
2019-05-28T04:02:49.763Z,67.96
2019-05-28T04:03:57.974Z,67.82
2019-05-28T04:05:07.556Z,67.92
2019-05-28T04:06:15.645Z,67.90
2019-05-28T04:07:24.629Z,67.86
2019-05-28T04:08:32.870Z,67.95
2019-05-28T04:09:41.695Z,68.06
2019-05-28T04:10:49.936Z,67.85
2019-05-28T04:11:58.752Z,67.82
2019-05-28T04:13:06.939Z,67.67
2019-05-28T04:14:16.061Z,67.42
2019-05-28T04:15:24.169Z,67.37
2019-05-28T04:16:34.028Z,67.19
2019-05-28T04:17:41.933Z,67.31
2019-05-28T04:18:50.755Z,67.29
2019-05-28T04:19:58.853Z,67.29
2019-05-28T04:21:07.941Z,67.31
2019-05-28T04:22:16.071Z,67.27
2019-05-28T04:23:25.185Z,67.26
2019-05-28T04:24:33.247Z,67.21
2019-05-28T04:25:42.065Z,67.20
2019-05-28T04:26:50.167Z,67.28
2019-05-28T04:27:59.481Z,67.37
2019-05-28T04:29:07.587Z,67.52
2019-05-28T04:30:16.677Z,67.62
2019-05-28T04:31:24.550Z,67.70
2019-05-28T04:32:40.501Z,67.80
2019-05-28T04:33:43.087Z,67.78
2019-05-28T04:34:51.931Z,67.36
2019-05-28T04:35:59.953Z,67.28
2019-05-28T04:37:08.974Z,67.27
2019-05-28T04:38:17.023Z,67.43
2019-05-28T04:39:25.868Z,67.57
2019-05-28T04:40:34.380Z,67.25
2019-05-28T04:41:43.225Z,67.40
2019-05-28T04:42:51.218Z,67.45
2019-05-28T04:44:00.129Z,67.38
2019-05-28T04:45:10.653Z,67.59
2019-05-28T04:46:19.801Z,67.62
2019-05-28T04:47:27.641Z,67.63
2019-05-28T04:48:36.335Z,67.70
2019-05-28T04:49:44.461Z,67.72
2019-05-28T04:50:53.350Z,67.93
2019-05-28T04:52:01.623Z,67.81
2019-05-28T04:53:11.940Z,67.94
2019-05-28T04:54:19.962Z,67.85
2019-05-28T04:55:28.873Z,67.81
2019-05-28T04:56:36.669Z,67.71
2019-05-28T04:57:45.514Z,67.56
2019-05-28T04:58:53.396Z,67.18
2019-05-28T05:00:02.269Z,67.19
2019-05-28T05:01:10.679Z,67.12
2019-05-28T05:02:19.595Z,67.25
2019-05-28T05:03:27.804Z,67.30
2019-05-28T05:04:36.439Z,67.37
2019-05-28T05:05:44.384Z,67.64
2019-05-28T05:06:53.453Z,67.74
2019-05-28T05:08:01.472Z,67.81
2019-05-28T05:09:10.474Z,67.98
2019-05-28T05:10:19.390Z,68.03
2019-05-28T05:11:28.686Z,68.05
2019-05-28T05:12:36.880Z,67.96
2019-05-28T05:13:45.593Z,67.53
2019-05-28T05:14:53.557Z,67.49
2019-05-28T05:16:02.878Z,67.74
2019-05-28T05:17:11.108Z,67.67
2019-05-28T05:18:19.951Z,67.54
2019-05-28T05:19:28.093Z,67.32
2019-05-28T05:20:36.981Z,67.39
2019-05-28T05:21:45.898Z,67.27
2019-05-28T05:22:54.614Z,67.28
2019-05-28T05:24:02.471Z,67.30
2019-05-28T05:25:12.454Z,67.33
2019-05-28T05:26:20.676Z,67.21
2019-05-28T05:27:29.748Z,67.29
2019-05-28T05:28:38.890Z,67.10
2019-05-28T05:29:47.904Z,67.25
2019-05-28T05:30:56.052Z,67.01
2019-05-28T05:32:05.142Z,67.49
2019-05-28T05:33:19.917Z,67.32
2019-05-28T05:34:24.239Z,67.29
2019-05-28T05:35:32.441Z,67.32
2019-05-28T05:36:41.228Z,67.26
2019-05-28T05:37:49.519Z,67.47
2019-05-28T05:38:58.507Z,67.53
2019-05-28T05:40:08.203Z,67.16
2019-05-28T05:41:16.997Z,67.06
2019-05-28T05:42:25.368Z,67.16
2019-05-28T05:43:34.388Z,66.72
2019-05-28T05:44:42.680Z,66.37
2019-05-28T05:45:51.832Z,66.39
2019-05-28T05:47:00.362Z,66.44
2019-05-28T05:48:08.810Z,66.86
2019-05-28T05:49:16.948Z,66.76
2019-05-28T05:50:26.125Z,66.61
2019-05-28T05:51:34.509Z,66.57
2019-05-28T05:52:43.466Z,66.43
2019-05-28T05:53:51.893Z,65.47
2019-05-28T05:55:00.740Z,65.19
2019-05-28T05:56:09.083Z,64.49
2019-05-28T05:57:17.899Z,64.75
2019-05-28T05:58:26.260Z,64.60
2019-05-28T05:59:35.398Z,64.93
2019-05-28T06:00:43.504Z,64.86
2019-05-28T06:01:52.806Z,64.73
2019-05-28T06:03:01.017Z,63.82
2019-05-28T06:04:10.490Z,63.88
2019-05-28T06:05:19.151Z,64.05
2019-05-28T06:06:28.342Z,64.11
2019-05-28T06:07:36.622Z,64.40
2019-05-28T06:08:45.610Z,63.75
2019-05-28T06:09:53.959Z,63.95
2019-05-28T06:11:03.141Z,63.85
2019-05-28T06:12:11.501Z,64.27
2019-05-28T06:13:20.497Z,63.30
2019-05-28T06:14:28.721Z,63.87
2019-05-28T06:15:37.825Z,63.76
2019-05-28T06:16:46.512Z,64.13
2019-05-28T06:17:55.964Z,63.67
2019-05-28T06:19:04.648Z,63.01
2019-05-28T06:20:14.106Z,62.34
2019-05-28T06:21:22.441Z,62.31
2019-05-28T06:22:31.277Z,62.55
2019-05-28T06:23:39.261Z,62.67
2019-05-28T06:24:48.082Z,62.32
2019-05-28T06:25:56.034Z,61.69
2019-05-28T06:27:05.201Z,61.72
2019-05-28T06:28:13.569Z,61.63
2019-05-28T06:29:22.514Z,61.87
2019-05-28T06:30:30.523Z,61.54
2019-05-28T06:31:39.461Z,61.69
2019-05-28T06:32:47.641Z,61.53
2019-05-28T06:33:57.538Z,61.77
2019-05-28T06:35:07.199Z,61.95
2019-05-28T06:36:16.140Z,61.93
2019-05-28T06:37:24.380Z,61.79
2019-05-28T06:38:33.643Z,62.01
2019-05-28T06:39:41.724Z,61.92
2019-05-28T06:40:50.776Z,61.92
2019-05-28T06:41:58.982Z,62.06
2019-05-28T06:43:08.420Z,61.86
2019-05-28T06:44:16.706Z,61.79
2019-05-28T06:45:25.994Z,61.98
2019-05-28T06:46:34.131Z,61.84
2019-05-28T06:47:45.442Z,61.70
2019-05-28T06:48:53.107Z,61.73
2019-05-28T06:50:02.005Z,61.82
2019-05-28T06:51:10.148Z,61.57
2019-05-28T06:52:19.216Z,61.66
2019-05-28T06:53:27.383Z,61.15
2019-05-28T06:54:36.685Z,61.66
2019-05-28T06:55:46.318Z,61.54
2019-05-28T06:56:55.362Z,60.72
2019-05-28T06:58:03.551Z,61.13
2019-05-28T06:59:12.558Z,60.95
2019-05-28T07:00:21.575Z,60.99
2019-05-28T07:01:30.398Z,61.03
2019-05-28T07:02:38.549Z,61.02
2019-05-28T07:03:47.303Z,61.67
2019-05-28T07:04:55.646Z,61.23
2019-05-28T07:06:07.581Z,61.27
2019-05-28T07:07:14.309Z,60.75
2019-05-28T07:08:23.137Z,59.92
2019-05-28T07:09:31.526Z,60.58
2019-05-28T07:10:56.514Z,60.34
2019-05-28T07:11:50.339Z,60.62
2019-05-28T07:12:59.197Z,60.04
2019-05-28T07:14:07.322Z,60.44
2019-05-28T07:15:16.909Z,60.49
2019-05-28T07:16:25.136Z,60.39
2019-05-28T07:17:34.452Z,59.61
2019-05-28T07:18:42.837Z,59.74
2019-05-28T07:19:51.665Z,59.52
2019-05-28T07:20:59.703Z,59.40
2019-05-28T07:22:08.884Z,59.18
2019-05-28T07:23:17.079Z,59.55
2019-05-28T07:24:25.853Z,59.37
2019-05-28T07:25:34.400Z,59.47
2019-05-28T07:26:43.482Z,59.72
2019-05-28T07:28:09.097Z,59.44
2019-05-28T07:29:01.768Z,59.69
2019-05-28T07:30:10.493Z,59.71
2019-05-28T07:31:19.690Z,60.01
2019-05-28T07:32:27.681Z,60.12
2019-05-28T07:33:36.706Z,59.98
2019-05-28T07:34:44.912Z,59.94
2019-05-28T07:35:53.632Z,60.00
2019-05-28T07:37:01.918Z,60.16
2019-05-28T07:38:11.039Z,60.19
2019-05-28T07:39:19.404Z,60.13
2019-05-28T07:40:32.018Z,59.86
2019-05-28T07:41:38.119Z,60.15
2019-05-28T07:42:47.120Z,60.37
2019-05-28T07:43:55.362Z,60.57
2019-05-28T07:45:04.495Z,60.64
2019-05-28T07:46:12.723Z,60.96
2019-05-28T07:47:21.244Z,60.81
2019-05-28T07:48:29.347Z,60.84
2019-05-28T07:49:38.063Z,60.85
2019-05-28T07:50:46.150Z,60.80
2019-05-28T07:51:55.064Z,60.76
2019-05-28T07:53:03.121Z,60.86
2019-05-28T07:54:12.342Z,60.95
2019-05-28T07:55:20.438Z,60.94
2019-05-28T07:56:29.284Z,61.14
2019-05-28T07:57:37.785Z,60.87
2019-05-28T07:58:46.524Z,60.14
2019-05-28T07:59:54.760Z,60.24
2019-05-28T08:01:03.503Z,60.26
2019-05-28T08:02:11.815Z,59.26
2019-05-28T08:03:20.844Z,59.94
2019-05-28T08:04:29.043Z,59.78
2019-05-28T08:05:38.695Z,59.92
2019-05-28T08:06:54.683Z,59.86
2019-05-28T08:07:57.562Z,59.74
2019-05-28T08:09:09.341Z,60.06
2019-05-28T08:10:19.008Z,59.83
2019-05-28T08:11:27.179Z,60.00
2019-05-28T08:12:36.051Z,60.11
2019-05-28T08:13:44.481Z,60.04
2019-05-28T08:14:53.595Z,60.00
2019-05-28T08:16:17.434Z,59.77
2019-05-28T08:17:12.853Z,60.00
2019-05-28T08:18:21.157Z,60.13
2019-05-28T08:19:30.069Z,60.17
2019-05-28T08:20:38.018Z,60.09
2019-05-28T08:21:46.834Z,59.66
2019-05-28T08:22:55.098Z,59.86
2019-05-28T08:24:03.942Z,60.14
2019-05-28T08:25:27.336Z,60.11
2019-05-28T08:26:23.020Z,59.84
2019-05-28T08:27:31.156Z,59.65
2019-05-28T08:28:40.143Z,59.99
2019-05-28T08:29:48.305Z,60.20
2019-05-28T08:31:14.196Z,60.14
2019-05-28T08:32:06.968Z,59.92
2019-05-28T08:33:16.090Z,59.73
2019-05-28T08:34:24.039Z,59.33
2019-05-28T08:35:33.358Z,59.62
2019-05-28T08:36:41.381Z,59.58
2019-05-28T08:37:50.585Z,59.58
2019-05-28T08:38:58.780Z,59.02
2019-05-28T08:40:09.950Z,59.37
2019-05-28T08:41:18.043Z,59.18
2019-05-28T08:42:26.955Z,59.38
2019-05-28T08:43:35.224Z,59.54
2019-05-28T08:44:43.929Z,59.36
2019-05-28T08:45:52.087Z,59.12
2019-05-28T08:47:01.288Z,59.39
2019-05-28T08:48:09.258Z,59.44
2019-05-28T08:49:17.464Z,59.37
2019-05-28T08:50:34.424Z,59.41
2019-05-28T08:51:35.857Z,59.55
2019-05-28T08:52:43.927Z,59.51
2019-05-28T08:53:52.645Z,59.61
2019-05-28T08:55:00.743Z,59.92
2019-05-28T08:56:09.761Z,60.05
2019-05-28T08:57:17.750Z,60.34
2019-05-28T08:58:26.467Z,60.55
2019-05-28T08:59:34.781Z,60.86
2019-05-28T09:00:45.933Z,60.99
2019-05-28T09:01:54.243Z,61.40
2019-05-28T09:03:05.234Z,61.46
2019-05-28T09:04:13.476Z,61.67
2019-05-28T09:05:26.432Z,61.72
2019-05-28T09:06:33.757Z,61.97
2019-05-28T09:07:42.456Z,61.75
2019-05-28T09:08:50.510Z,61.89
2019-05-28T09:09:59.414Z,61.81
2019-05-28T09:11:08.352Z,61.90
2019-05-28T09:12:17.663Z,61.68
2019-05-28T09:13:25.761Z,61.89
2019-05-28T09:14:54.271Z,62.14
2019-05-28T09:15:44.438Z,62.17
2019-05-28T09:16:55.154Z,62.21
2019-05-28T09:18:03.724Z,62.32
2019-05-28T09:19:12.795Z,62.24
2019-05-28T09:20:21.255Z,62.04
2019-05-28T09:21:30.107Z,61.90
2019-05-28T09:22:38.464Z,61.64
2019-05-28T09:23:47.533Z,61.50
2019-05-28T09:24:55.639Z,61.62
2019-05-28T09:26:04.842Z,61.80
2019-05-28T09:27:12.668Z,61.63
2019-05-28T09:28:30.162Z,62.02
2019-05-28T09:29:31.023Z,62.15
2019-05-28T09:30:40.215Z,62.50
2019-05-28T09:31:48.494Z,62.69
2019-05-28T09:32:57.324Z,62.79
2019-05-28T09:34:05.628Z,63.24
2019-05-28T09:35:14.641Z,63.25
2019-05-28T09:36:22.528Z,63.27
2019-05-28T09:37:31.507Z,63.10
2019-05-28T09:38:39.858Z,62.72
2019-05-28T09:39:48.830Z,62.55
2019-05-28T09:40:56.970Z,62.74
2019-05-28T09:42:06.189Z,62.80
2019-05-28T09:43:14.306Z,63.05
2019-05-28T09:44:23.414Z,63.01
2019-05-28T09:45:31.811Z,63.21
2019-05-28T09:46:40.932Z,63.31
2019-05-28T09:47:48.935Z,63.83
2019-05-28T09:48:57.766Z,63.73
2019-05-28T09:50:27.010Z,63.47
2019-05-28T09:51:18.840Z,63.99
2019-05-28T09:52:26.852Z,63.88
2019-05-28T09:53:35.726Z,63.54
2019-05-28T09:54:43.559Z,63.72
2019-05-28T09:55:52.557Z,63.05
2019-05-28T09:57:00.463Z,63.67
2019-05-28T09:58:09.892Z,63.32
2019-05-28T09:59:18.017Z,62.80
2019-05-28T10:00:27.634Z,62.50
2019-05-28T10:01:37.199Z,62.69
2019-05-28T10:02:46.666Z,63.03
2019-05-28T10:03:55.188Z,62.17
2019-05-28T10:05:04.234Z,62.26
2019-05-28T10:06:17.555Z,62.20
2019-05-28T10:07:22.876Z,62.29
2019-05-28T10:08:30.826Z,62.53
2019-05-28T10:09:39.884Z,61.98
2019-05-28T10:10:48.020Z,60.99
2019-05-28T10:11:57.249Z,60.96
2019-05-28T10:13:05.611Z,60.65
2019-05-28T10:14:14.740Z,60.78
2019-05-28T10:15:23.146Z,61.12
2019-05-28T10:16:32.155Z,59.04
2019-05-28T10:17:40.256Z,58.29
2019-05-28T10:18:49.107Z,58.27
2019-05-28T10:19:57.118Z,58.76
2019-05-28T10:21:17.605Z,57.63
2019-05-28T10:22:16.125Z,56.48
2019-05-28T10:23:25.095Z,55.83
2019-05-28T10:24:33.202Z,55.72
2019-05-28T10:25:42.059Z,55.58
2019-05-28T10:26:50.244Z,55.46
2019-05-28T10:28:01.354Z,55.55
2019-05-28T10:29:08.799Z,55.49
2019-05-28T10:30:18.512Z,55.55
2019-05-28T10:31:26.529Z,55.88
2019-05-28T10:32:35.646Z,55.54
2019-05-28T10:33:43.799Z,55.65
2019-05-28T10:35:03.419Z,55.83
2019-05-28T10:36:02.400Z,56.06
2019-05-28T10:37:11.259Z,55.84
2019-05-28T10:38:19.198Z,55.83
2019-05-28T10:39:27.993Z,55.99
2019-05-28T10:40:36.105Z,55.36
2019-05-28T10:41:45.125Z,54.65
2019-05-28T10:42:53.257Z,54.17
2019-05-28T10:44:02.653Z,54.78
2019-05-28T10:45:12.293Z,54.66
2019-05-28T10:46:21.314Z,54.58
2019-05-28T10:47:29.407Z,55.06
2019-05-28T10:48:38.589Z,55.66
2019-05-28T10:49:50.731Z,55.76
2019-05-28T10:50:56.760Z,56.08
2019-05-28T10:52:04.691Z,56.37
2019-05-28T10:53:13.926Z,56.22
2019-05-28T10:54:22.178Z,56.51
2019-05-28T10:55:30.995Z,56.40
2019-05-28T10:56:39.284Z,56.71
2019-05-28T10:57:47.808Z,56.60
2019-05-28T10:58:56.015Z,56.94
2019-05-28T11:00:06.509Z,57.32
2019-05-28T11:01:14.698Z,57.62
2019-05-28T11:02:23.410Z,57.81
2019-05-28T11:03:31.571Z,58.26
2019-05-28T11:04:40.486Z,59.20
2019-05-28T11:05:48.487Z,60.75
2019-05-28T11:06:57.531Z,61.64
2019-05-28T11:08:05.740Z,63.34
2019-05-28T11:09:14.342Z,63.03
2019-05-28T11:10:25.680Z,63.43
2019-05-28T11:11:34.640Z,63.78
2019-05-28T11:12:42.611Z,64.05
2019-05-28T11:13:53.285Z,63.92
2019-05-28T11:15:01.099Z,63.21
2019-05-28T11:16:10.000Z,63.73
2019-05-28T11:17:18.366Z,63.73
2019-05-28T11:18:27.204Z,64.52
2019-05-28T11:19:35.587Z,63.89
2019-05-28T11:20:44.518Z,64.46
2019-05-28T11:21:52.696Z,64.65
2019-05-28T11:23:01.425Z,64.86
2019-05-28T11:24:09.540Z,65.52
2019-05-28T11:25:20.565Z,66.08
2019-05-28T11:26:28.822Z,67.03
2019-05-28T11:27:37.707Z,66.61
2019-05-28T11:28:45.683Z,65.28
2019-05-28T11:29:54.743Z,63.24
2019-05-28T11:31:02.895Z,63.33
2019-05-28T11:32:11.597Z,62.44
2019-05-28T11:33:19.902Z,63.01
2019-05-28T11:34:28.627Z,63.46
2019-05-28T11:35:37.026Z,63.17
2019-05-28T11:36:46.062Z,63.26
2019-05-28T11:37:54.330Z,61.67
2019-05-28T11:39:03.371Z,60.99
2019-05-28T11:40:13.001Z,61.95
2019-05-28T11:41:22.147Z,62.42
2019-05-28T11:42:30.475Z,62.02
2019-05-28T11:43:39.471Z,59.92
2019-05-28T11:44:47.697Z,58.14
2019-05-28T11:45:56.457Z,57.73
2019-05-28T11:47:05.595Z,58.28
2019-05-28T11:48:15.924Z,58.60
2019-05-28T11:49:23.959Z,60.31
2019-05-28T11:50:33.435Z,57.88
2019-05-28T11:51:41.530Z,57.45
2019-05-28T11:52:50.781Z,56.09
2019-05-28T11:53:59.214Z,56.13
2019-05-28T11:55:17.699Z,56.23
2019-05-28T11:56:25.671Z,56.40
2019-05-28T11:57:34.495Z,56.26
2019-05-28T11:58:42.549Z,55.18
2019-05-28T11:59:51.463Z,53.40
2019-05-28T12:00:59.682Z,54.81
2019-05-28T12:02:08.664Z,54.30
2019-05-28T12:03:17.153Z,53.17
2019-05-28T12:04:25.984Z,52.25
2019-05-28T12:05:34.072Z,51.64
2019-05-28T12:06:43.165Z,52.09
2019-05-28T12:07:51.960Z,52.16
2019-05-28T12:09:01.046Z,52.53
2019-05-28T12:10:11.474Z,51.97
2019-05-28T12:11:20.643Z,52.13
2019-05-28T12:12:28.565Z,52.60
2019-05-28T12:13:37.604Z,53.26
2019-05-28T12:14:45.703Z,53.73
2019-05-28T12:15:54.634Z,53.79
2019-05-28T12:17:02.557Z,54.31
2019-05-28T12:18:11.826Z,54.93
2019-05-28T12:19:20.317Z,54.99
2019-05-28T12:20:30.109Z,54.29
2019-05-28T12:21:37.959Z,54.28
2019-05-28T12:22:47.005Z,54.39
2019-05-28T12:23:55.260Z,54.66
2019-05-28T12:25:04.463Z,54.98
2019-05-28T12:26:12.624Z,55.11
2019-05-28T12:27:21.937Z,55.53
2019-05-28T12:28:37.379Z,55.94
2019-05-28T12:29:51.477Z,55.91
2019-05-28T12:30:50.793Z,56.08
2019-05-28T12:32:00.359Z,56.37
2019-05-28T12:33:08.980Z,56.80
2019-05-28T12:34:18.315Z,56.62
2019-05-28T12:35:29.703Z,56.65
2019-05-28T12:36:37.282Z,56.98
2019-05-28T12:37:48.704Z,56.79
2019-05-28T12:38:56.064Z,57.22
2019-05-28T12:40:05.337Z,57.08
2019-05-28T12:41:14.568Z,57.12
2019-05-28T12:42:22.887Z,57.19
2019-05-28T12:43:31.407Z,58.12
2019-05-28T12:44:42.548Z,57.12
2019-05-28T12:45:50.106Z,57.15
2019-05-28T12:46:58.123Z,57.62
2019-05-28T12:48:12.175Z,58.91
2019-05-28T12:49:17.415Z,56.28
2019-05-28T12:50:26.731Z,55.90
2019-05-28T12:51:35.094Z,55.16
2019-05-28T12:52:47.062Z,55.61
2019-05-28T12:53:53.961Z,55.86
2019-05-28T12:55:03.099Z,56.19
2019-05-28T12:56:11.210Z,56.75
2019-05-28T12:57:20.755Z,55.63
2019-05-28T12:58:41.528Z,55.08
2019-05-28T12:59:39.224Z,55.15
2019-05-28T13:00:47.589Z,54.23
2019-05-28T13:01:56.433Z,54.79
2019-05-28T13:03:05.082Z,54.72
2019-05-28T13:04:14.186Z,54.19
2019-05-28T13:05:26.265Z,54.42
2019-05-28T13:06:35.275Z,54.74
2019-05-28T13:07:43.391Z,53.91
2019-05-28T13:08:52.242Z,54.30
2019-05-28T13:10:01.182Z,53.18
2019-05-28T13:11:09.982Z,53.26
2019-05-28T13:12:18.074Z,53.41
2019-05-28T13:13:27.074Z,51.02
2019-05-28T13:14:35.399Z,50.99
2019-05-28T13:15:44.835Z,51.68
2019-05-28T13:16:54.308Z,51.46
2019-05-28T13:18:03.251Z,51.32
2019-05-28T13:19:11.223Z,51.67
2019-05-28T13:20:20.454Z,51.39
2019-05-28T13:21:28.810Z,50.96
2019-05-28T13:22:37.736Z,50.45
2019-05-28T13:23:46.022Z,49.50
2019-05-28T13:24:55.112Z,50.17
2019-05-28T13:26:03.119Z,48.92
2019-05-28T13:27:17.948Z,48.09
2019-05-28T13:28:22.096Z,47.08
2019-05-28T13:29:30.727Z,46.51
2019-05-28T13:30:38.583Z,46.55
2019-05-28T13:31:47.196Z,47.46
2019-05-28T13:32:55.477Z,47.62
2019-05-28T13:34:04.389Z,47.15
2019-05-28T13:35:15.381Z,47.32
2019-05-28T13:36:23.544Z,48.41
2019-05-28T13:37:31.543Z,46.74
2019-05-28T13:38:42.864Z,46.56
2019-05-28T13:39:50.309Z,45.93
2019-05-28T13:40:59.158Z,46.79
2019-05-28T13:42:07.052Z,46.83
2019-05-28T13:43:16.151Z,47.03
2019-05-28T13:44:24.601Z,46.93
2019-05-28T13:45:33.227Z,47.00
2019-05-28T13:46:41.213Z,46.93
2019-05-28T13:47:50.248Z,46.19
2019-05-28T13:48:58.459Z,46.52
2019-05-28T13:50:12.993Z,46.43
2019-05-28T13:51:21.230Z,44.92
2019-05-28T13:52:30.022Z,44.91
2019-05-28T13:53:38.081Z,45.09
2019-05-28T13:54:46.412Z,44.80
2019-05-28T13:55:54.386Z,45.23
2019-05-28T13:57:02.925Z,44.73
2019-05-28T13:58:13.070Z,45.40
2019-05-28T13:59:22.165Z,45.64
2019-05-28T14:00:30.759Z,46.05
2019-05-28T14:01:39.616Z,46.04
2019-05-28T14:02:47.864Z,44.94
2019-05-28T14:03:56.814Z,44.93
2019-05-28T14:05:06.267Z,45.52
2019-05-28T14:06:15.274Z,45.44
2019-05-28T14:07:23.309Z,46.26
2019-05-28T14:08:46.081Z,45.56
2019-05-28T14:09:41.693Z,45.12
2019-05-28T14:10:50.640Z,45.98
2019-05-28T14:11:58.945Z,45.92
2019-05-28T14:13:07.681Z,44.70
2019-05-28T14:14:15.676Z,45.51
2019-05-28T14:15:25.195Z,46.05
2019-05-28T14:16:33.113Z,46.29
2019-05-28T14:17:42.070Z,45.56
2019-05-28T14:18:50.642Z,46.20
2019-05-28T14:20:00.135Z,46.47
2019-05-28T14:21:08.285Z,45.78
2019-05-28T14:22:32.886Z,45.17
2019-05-28T14:23:27.605Z,45.56
2019-05-28T14:24:36.299Z,45.56
2019-05-28T14:25:45.439Z,45.97
2019-05-28T14:26:54.101Z,46.00
2019-05-28T14:28:02.348Z,45.88
2019-05-28T14:29:11.186Z,46.04
2019-05-28T14:30:21.358Z,45.74
2019-05-28T14:31:30.179Z,46.21
2019-05-28T14:32:38.321Z,45.75
2019-05-28T14:33:47.320Z,45.74
2019-05-28T14:34:55.532Z,46.00
2019-05-28T14:36:04.661Z,46.05
2019-05-28T14:37:12.656Z,45.58
2019-05-28T14:38:21.395Z,44.71
2019-05-28T14:39:40.492Z,44.90
2019-05-28T14:40:40.066Z,44.81
2019-05-28T14:41:48.065Z,45.00
2019-05-28T14:42:57.155Z,45.22
2019-05-28T14:44:07.296Z,45.42
2019-05-28T14:45:18.251Z,45.19
2019-05-28T14:46:26.423Z,45.32